sensor_id;sensor_type;location;lat;lon;timestamp;pressure;altitude;pressure_sealevel;temperature;humidity
6216;BME280;3141;49.234;9.326;2023-03-03T00:00:28;99903.78;;;4.50;69.29
6216;BME280;3141;49.234;9.326;2023-03-03T00:01:10;99903.06;;;4.48;69.09
6216;BME280;3141;49.234;9.326;2023-03-03T00:01:52;99906.03;;;4.54;69.00
6216;BME280;3141;49.234;9.326;2023-03-03T00:02:35;99901.97;;;4.50;69.05
6216;BME280;3141;49.234;9.326;2023-03-03T00:03:22;99909.84;;;4.50;69.16
6216;BME280;3141;49.234;9.326;2023-03-03T00:04:05;99905.81;;;4.57;68.78
6216;BME280;3141;49.234;9.326;2023-03-03T00:04:47;99911.06;;;4.57;68.81
6216;BME280;3141;49.234;9.326;2023-03-03T00:05:34;99913.34;;;4.62;68.19
6216;BME280;3141;49.234;9.326;2023-03-03T00:06:16;99903.00;;;4.60;68.20
6216;BME280;3141;49.234;9.326;2023-03-03T00:06:59;99902.94;;;4.49;69.06
6216;BME280;3141;49.234;9.326;2023-03-03T00:07:43;99905.50;;;4.38;69.23
6216;BME280;3141;49.234;9.326;2023-03-03T00:08:26;99907.59;;;4.33;69.96
6216;BME280;3141;49.234;9.326;2023-03-03T00:09:08;99904.31;;;4.42;69.17
6216;BME280;3141;49.234;9.326;2023-03-03T00:09:51;99901.59;;;4.44;68.67
6216;BME280;3141;49.234;9.326;2023-03-03T00:10:33;99903.41;;;4.43;68.69
6216;BME280;3141;49.234;9.326;2023-03-03T00:11:16;99905.66;;;4.48;68.91
6216;BME280;3141;49.234;9.326;2023-03-03T00:11:59;99909.22;;;4.47;68.88
6216;BME280;3141;49.234;9.326;2023-03-03T00:12:46;99901.94;;;4.39;68.89
6216;BME280;3141;49.234;9.326;2023-03-03T00:13:29;99902.38;;;4.33;69.13
6216;BME280;3141;49.234;9.326;2023-03-03T00:14:23;99908.28;;;4.24;69.64
6216;BME280;3141;49.234;9.326;2023-03-03T00:15:19;99906.31;;;4.15;70.10
6216;BME280;3141;49.234;9.326;2023-03-03T00:16:29;99901.09;;;4.15;70.11
6216;BME280;3141;49.234;9.326;2023-03-03T00:17:27;99907.78;;;4.19;70.38
6216;BME280;3141;49.234;9.326;2023-03-03T00:18:17;99907.25;;;4.14;70.32
6216;BME280;3141;49.234;9.326;2023-03-03T00:19:13;99902.56;;;4.19;70.20
6216;BME280;3141;49.234;9.326;2023-03-03T00:19:56;99907.88;;;4.18;70.04
6216;BME280;3141;49.234;9.326;2023-03-03T00:20:38;99914.69;;;4.20;69.82
6216;BME280;3141;49.234;9.326;2023-03-03T00:22:18;99898.03;;;4.21;69.46
6216;BME280;3141;49.234;9.326;2023-03-03T00:23:29;99898.72;;;4.12;70.16
6216;BME280;3141;49.234;9.326;2023-03-03T00:25:28;99902.19;;;4.00;70.58
6216;BME280;3141;49.234;9.326;2023-03-03T00:26:25;99900.28;;;4.02;70.26
6216;BME280;3141;49.234;9.326;2023-03-03T00:27:26;99910.56;;;4.05;69.97
6216;BME280;3141;49.234;9.326;2023-03-03T00:28:31;99902.47;;;4.08;70.40
6216;BME280;3141;49.234;9.326;2023-03-03T00:29:34;99902.88;;;4.15;69.49
6216;BME280;3141;49.234;9.326;2023-03-03T00:30:23;99909.09;;;4.01;69.49
6216;BME280;3141;49.234;9.326;2023-03-03T00:31:14;99905.75;;;3.99;69.96
6216;BME280;3141;49.234;9.326;2023-03-03T00:32:11;99905.97;;;3.96;70.24
6216;BME280;3141;49.234;9.326;2023-03-03T00:32:57;99910.66;;;4.04;70.00
6216;BME280;3141;49.234;9.326;2023-03-03T00:33:47;99909.81;;;4.03;69.76
6216;BME280;3141;49.234;9.326;2023-03-03T00:34:32;99904.81;;;4.00;70.33
6216;BME280;3141;49.234;9.326;2023-03-03T00:35:23;99907.97;;;3.93;70.65
6216;BME280;3141;49.234;9.326;2023-03-03T00:36:57;99903.06;;;3.88;70.22
6216;BME280;3141;49.234;9.326;2023-03-03T00:37:40;99905.47;;;3.79;70.47
6216;BME280;3141;49.234;9.326;2023-03-03T00:38:22;99916.16;;;3.76;70.91
6216;BME280;3141;49.234;9.326;2023-03-03T00:40:59;99910.53;;;3.69;71.30
6216;BME280;3141;49.234;9.326;2023-03-03T00:41:42;99913.53;;;3.76;71.16
6216;BME280;3141;49.234;9.326;2023-03-03T00:42:26;99910.94;;;3.76;70.69
6216;BME280;3141;49.234;9.326;2023-03-03T00:43:23;99922.22;;;3.76;70.80
6216;BME280;3141;49.234;9.326;2023-03-03T00:44:41;99911.34;;;3.70;70.79
6216;BME280;3141;49.234;9.326;2023-03-03T00:45:54;99924.63;;;3.79;70.48
6216;BME280;3141;49.234;9.326;2023-03-03T00:46:36;99925.88;;;3.86;69.76
6216;BME280;3141;49.234;9.326;2023-03-03T00:47:28;99919.06;;;3.84;70.05
6216;BME280;3141;49.234;9.326;2023-03-03T00:48:28;99917.00;;;3.76;69.98
6216;BME280;3141;49.234;9.326;2023-03-03T00:49:22;99917.84;;;3.64;70.97
6216;BME280;3141;49.234;9.326;2023-03-03T00:50:48;99913.03;;;3.58;71.19
6216;BME280;3141;49.234;9.326;2023-03-03T00:51:32;99922.47;;;3.61;71.14
6216;BME280;3141;49.234;9.326;2023-03-03T00:52:17;99914.19;;;3.67;70.73
6216;BME280;3141;49.234;9.326;2023-03-03T00:53:47;99916.78;;;3.67;70.81
6216;BME280;3141;49.234;9.326;2023-03-03T00:54:29;99916.69;;;3.68;70.42
6216;BME280;3141;49.234;9.326;2023-03-03T00:55:11;99919.28;;;3.68;70.46
6216;BME280;3141;49.234;9.326;2023-03-03T00:55:54;99917.41;;;3.70;70.52
6216;BME280;3141;49.234;9.326;2023-03-03T00:56:37;99914.28;;;3.65;70.46
6216;BME280;3141;49.234;9.326;2023-03-03T00:57:20;99917.22;;;3.61;70.48
6216;BME280;3141;49.234;9.326;2023-03-03T00:58:03;99913.03;;;3.58;71.10
6216;BME280;3141;49.234;9.326;2023-03-03T00:58:45;99913.16;;;3.57;70.54
6216;BME280;3141;49.234;9.326;2023-03-03T00:59:29;99915.34;;;3.50;70.69
6216;BME280;3141;49.234;9.326;2023-03-03T01:00:12;99911.06;;;3.49;71.53
6216;BME280;3141;49.234;9.326;2023-03-03T01:00:54;99910.84;;;3.52;71.13
6216;BME280;3141;49.234;9.326;2023-03-03T01:01:39;99917.63;;;3.54;71.19
6216;BME280;3141;49.234;9.326;2023-03-03T01:02:22;99914.19;;;3.54;70.95
6216;BME280;3141;49.234;9.326;2023-03-03T01:03:09;99917.41;;;3.58;70.70
6216;BME280;3141;49.234;9.326;2023-03-03T01:03:53;99920.34;;;3.66;70.30
6216;BME280;3141;49.234;9.326;2023-03-03T01:04:35;99910.94;;;3.63;70.35
6216;BME280;3141;49.234;9.326;2023-03-03T01:05:19;99914.50;;;3.62;70.82
6216;BME280;3141;49.234;9.326;2023-03-03T01:06:01;99919.31;;;3.55;70.43
6216;BME280;3141;49.234;9.326;2023-03-03T01:06:44;99915.66;;;3.45;70.29
6216;BME280;3141;49.234;9.326;2023-03-03T01:07:26;99920.75;;;3.47;71.07
6216;BME280;3141;49.234;9.326;2023-03-03T01:08:09;99911.69;;;3.40;71.15
6216;BME280;3141;49.234;9.326;2023-03-03T01:08:51;99913.47;;;3.39;71.06
6216;BME280;3141;49.234;9.326;2023-03-03T01:09:33;99912.53;;;3.40;71.23
6216;BME280;3141;49.234;9.326;2023-03-03T01:10:16;99916.19;;;3.38;71.02
6216;BME280;3141;49.234;9.326;2023-03-03T01:11:08;99910.22;;;3.36;71.69
6216;BME280;3141;49.234;9.326;2023-03-03T01:11:52;99905.75;;;3.38;71.53
6216;BME280;3141;49.234;9.326;2023-03-03T01:12:34;99906.38;;;3.29;71.96
6216;BME280;3141;49.234;9.326;2023-03-03T01:13:23;99907.00;;;3.32;71.42
6216;BME280;3141;49.234;9.326;2023-03-03T01:14:07;99915.34;;;3.25;71.62
6216;BME280;3141;49.234;9.326;2023-03-03T01:14:49;99909.50;;;3.21;72.23
6216;BME280;3141;49.234;9.326;2023-03-03T01:15:34;99905.84;;;3.24;72.24
6216;BME280;3141;49.234;9.326;2023-03-03T01:16:17;99906.75;;;3.23;71.95
6216;BME280;3141;49.234;9.326;2023-03-03T01:16:59;99910.84;;;3.27;71.50
6216;BME280;3141;49.234;9.326;2023-03-03T01:17:42;99908.56;;;3.22;71.90
6216;BME280;3141;49.234;9.326;2023-03-03T01:18:25;99911.81;;;3.26;72.02
6216;BME280;3141;49.234;9.326;2023-03-03T01:19:08;99915.13;;;3.28;71.59
6216;BME280;3141;49.234;9.326;2023-03-03T01:19:50;99914.72;;;3.34;71.38
6216;BME280;3141;49.234;9.326;2023-03-03T01:20:32;99916.59;;;3.32;71.66
6216;BME280;3141;49.234;9.326;2023-03-03T01:21:15;99908.03;;;3.30;71.22
6216;BME280;3141;49.234;9.326;2023-03-03T01:21:57;99916.19;;;3.25;72.12
6216;BME280;3141;49.234;9.326;2023-03-03T01:22:39;99911.06;;;3.24;71.79
6216;BME280;3141;49.234;9.326;2023-03-03T01:23:22;99908.66;;;3.21;72.27
6216;BME280;3141;49.234;9.326;2023-03-03T01:24:04;99911.28;;;3.21;71.91
6216;BME280;3141;49.234;9.326;2023-03-03T01:24:47;99911.38;;;3.19;72.34
6216;BME280;3141;49.234;9.326;2023-03-03T01:25:29;99909.06;;;3.15;71.95
6216;BME280;3141;49.234;9.326;2023-03-03T01:26:11;99908.56;;;3.22;72.03
6216;BME280;3141;49.234;9.326;2023-03-03T01:26:54;99906.38;;;3.29;72.07
6216;BME280;3141;49.234;9.326;2023-03-03T01:27:36;99908.66;;;3.33;71.83
6216;BME280;3141;49.234;9.326;2023-03-03T01:28:19;99903.66;;;3.43;71.18
6216;BME280;3141;49.234;9.326;2023-03-03T01:29:01;99907.63;;;3.48;71.17
6216;BME280;3141;49.234;9.326;2023-03-03T01:29:43;99903.94;;;3.51;70.34
6216;BME280;3141;49.234;9.326;2023-03-03T01:30:26;99902.91;;;3.53;70.62
6216;BME280;3141;49.234;9.326;2023-03-03T01:31:09;99912.00;;;3.48;70.20
6216;BME280;3141;49.234;9.326;2023-03-03T01:31:51;99912.94;;;3.47;70.16
6216;BME280;3141;49.234;9.326;2023-03-03T01:32:33;99904.47;;;3.43;70.66
6216;BME280;3141;49.234;9.326;2023-03-03T01:33:16;99900.63;;;3.36;70.38
6216;BME280;3141;49.234;9.326;2023-03-03T01:33:58;99897.56;;;3.30;70.97
6216;BME280;3141;49.234;9.326;2023-03-03T01:34:40;99900.19;;;3.30;71.18
6216;BME280;3141;49.234;9.326;2023-03-03T01:35:23;99901.75;;;3.32;71.21
6216;BME280;3141;49.234;9.326;2023-03-03T01:36:06;99904.28;;;3.34;70.76
6216;BME280;3141;49.234;9.326;2023-03-03T01:36:48;99899.16;;;3.32;70.59
6216;BME280;3141;49.234;9.326;2023-03-03T01:37:33;99897.38;;;3.33;70.99
6216;BME280;3141;49.234;9.326;2023-03-03T01:38:16;99893.09;;;3.32;70.38
6216;BME280;3141;49.234;9.326;2023-03-03T01:38:58;99895.47;;;3.35;70.27
6216;BME280;3141;49.234;9.326;2023-03-03T01:39:41;99888.81;;;3.31;70.47
6216;BME280;3141;49.234;9.326;2023-03-03T01:40:28;99890.25;;;3.35;70.70
6216;BME280;3141;49.234;9.326;2023-03-03T01:41:10;99891.31;;;3.32;70.59
6216;BME280;3141;49.234;9.326;2023-03-03T01:41:53;99894.03;;;3.18;70.33
6216;BME280;3141;49.234;9.326;2023-03-03T01:42:35;99897.16;;;3.11;70.75
6216;BME280;3141;49.234;9.326;2023-03-03T01:43:17;99895.69;;;3.19;71.07
6216;BME280;3141;49.234;9.326;2023-03-03T01:44:00;99893.81;;;3.21;70.45
6216;BME280;3141;49.234;9.326;2023-03-03T01:44:42;99903.63;;;3.18;70.57
6216;BME280;3141;49.234;9.326;2023-03-03T01:45:28;99901.75;;;3.20;70.64
6216;BME280;3141;49.234;9.326;2023-03-03T01:47:27;99907.50;;;3.25;70.57
6216;BME280;3141;49.234;9.326;2023-03-03T01:48:17;99905.31;;;3.19;70.38
6216;BME280;3141;49.234;9.326;2023-03-03T01:49:10;99901.34;;;3.13;70.83
6216;BME280;3141;49.234;9.326;2023-03-03T01:49:59;99901.66;;;3.09;71.34
6216;BME280;3141;49.234;9.326;2023-03-03T01:50:48;99902.59;;;3.20;71.29
6216;BME280;3141;49.234;9.326;2023-03-03T01:51:37;99900.50;;;3.25;70.59
6216;BME280;3141;49.234;9.326;2023-03-03T01:52:30;99899.44;;;3.28;70.19
6216;BME280;3141;49.234;9.326;2023-03-03T01:53:18;99902.50;;;3.34;70.52
6216;BME280;3141;49.234;9.326;2023-03-03T01:54:06;99904.06;;;3.37;70.57
6216;BME280;3141;49.234;9.326;2023-03-03T01:54:55;99900.63;;;3.36;70.06
6216;BME280;3141;49.234;9.326;2023-03-03T01:55:40;99906.56;;;3.38;70.06
6216;BME280;3141;49.234;9.326;2023-03-03T01:56:23;99901.44;;;3.37;70.08
6216;BME280;3141;49.234;9.326;2023-03-03T01:57:13;99899.25;;;3.31;70.08
6216;BME280;3141;49.234;9.326;2023-03-03T01:58:10;99904.69;;;3.28;70.51
6216;BME280;3141;49.234;9.326;2023-03-03T01:59:46;99899.56;;;3.39;70.32
6216;BME280;3141;49.234;9.326;2023-03-03T02:00:31;99901.34;;;3.38;70.14
6216;BME280;3141;49.234;9.326;2023-03-03T02:01:19;99904.56;;;3.42;70.16
6216;BME280;3141;49.234;9.326;2023-03-03T02:02:03;99905.53;;;3.41;70.15
6216;BME280;3141;49.234;9.326;2023-03-03T02:02:46;99899.03;;;3.34;69.91
6216;BME280;3141;49.234;9.326;2023-03-03T02:03:28;99902.81;;;3.30;69.91
6216;BME280;3141;49.234;9.326;2023-03-03T02:04:12;99892.78;;;3.24;69.97
6216;BME280;3141;49.234;9.326;2023-03-03T02:04:54;99898.84;;;3.24;70.66
6216;BME280;3141;49.234;9.326;2023-03-03T02:05:37;99897.16;;;3.23;70.61
6216;BME280;3141;49.234;9.326;2023-03-03T02:06:28;99899.66;;;3.25;70.82
6216;BME280;3141;49.234;9.326;2023-03-03T02:07:13;99891.31;;;3.20;70.79
6216;BME280;3141;49.234;9.326;2023-03-03T02:07:56;99895.50;;;3.10;71.36
6216;BME280;3141;49.234;9.326;2023-03-03T02:09:04;99902.81;;;3.17;71.17
6216;BME280;3141;49.234;9.326;2023-03-03T02:09:54;99901.09;;;3.04;71.42
6216;BME280;3141;49.234;9.326;2023-03-03T02:10:39;99899.88;;;3.09;71.28
6216;BME280;3141;49.234;9.326;2023-03-03T02:11:21;99903.31;;;3.10;70.90
6216;BME280;3141;49.234;9.326;2023-03-03T02:12:06;99895.59;;;3.08;71.05
6216;BME280;3141;49.234;9.326;2023-03-03T02:12:54;99901.97;;;3.04;70.60
6216;BME280;3141;49.234;9.326;2023-03-03T02:13:37;99901.84;;;2.93;71.18
6216;BME280;3141;49.234;9.326;2023-03-03T02:14:19;99896.50;;;2.82;71.51
6216;BME280;3141;49.234;9.326;2023-03-03T02:15:14;99901.19;;;2.77;71.75
6216;BME280;3141;49.234;9.326;2023-03-03T02:15:57;99904.53;;;2.79;72.17
6216;BME280;3141;49.234;9.326;2023-03-03T02:16:41;99898.88;;;2.73;72.26
6216;BME280;3141;49.234;9.326;2023-03-03T02:17:24;99902.97;;;2.77;71.91
6216;BME280;3141;49.234;9.326;2023-03-03T02:18:15;99894.91;;;2.80;71.83
6216;BME280;3141;49.234;9.326;2023-03-03T02:18:57;99897.63;;;2.78;72.08
6216;BME280;3141;49.234;9.326;2023-03-03T02:19:55;99896.59;;;2.81;71.56
6216;BME280;3141;49.234;9.326;2023-03-03T02:21:32;99894.63;;;2.84;71.41
6216;BME280;3141;49.234;9.326;2023-03-03T02:22:16;99897.25;;;2.84;71.52
6216;BME280;3141;49.234;9.326;2023-03-03T02:23:17;99894.53;;;2.86;71.08
6216;BME280;3141;49.234;9.326;2023-03-03T02:25:07;99895.16;;;2.89;70.95
6216;BME280;3141;49.234;9.326;2023-03-03T02:26:40;99904.66;;;2.90;70.72
6216;BME280;3141;49.234;9.326;2023-03-03T02:27:25;99889.09;;;2.89;71.00
6216;BME280;3141;49.234;9.326;2023-03-03T02:28:09;99892.53;;;2.89;71.00
6216;BME280;3141;49.234;9.326;2023-03-03T02:28:51;99898.78;;;2.74;71.58
6216;BME280;3141;49.234;9.326;2023-03-03T02:29:33;99899.81;;;2.72;71.70
6216;BME280;3141;49.234;9.326;2023-03-03T02:30:19;99893.13;;;2.68;72.12
6216;BME280;3141;49.234;9.326;2023-03-03T02:31:04;99895.72;;;2.68;71.91
6216;BME280;3141;49.234;9.326;2023-03-03T02:31:46;99890.22;;;2.72;71.82
6216;BME280;3141;49.234;9.326;2023-03-03T02:32:29;99895.44;;;2.72;71.86
6216;BME280;3141;49.234;9.326;2023-03-03T02:33:11;99895.72;;;2.68;72.17
6216;BME280;3141;49.234;9.326;2023-03-03T02:33:54;99897.81;;;2.63;71.93
6216;BME280;3141;49.234;9.326;2023-03-03T02:34:45;99892.41;;;2.66;71.89
6216;BME280;3141;49.234;9.326;2023-03-03T02:35:35;99893.13;;;2.68;71.88
6216;BME280;3141;49.234;9.326;2023-03-03T02:36:20;99893.66;;;2.73;71.85
6216;BME280;3141;49.234;9.326;2023-03-03T02:37:03;99890.31;;;2.71;71.52
6216;BME280;3141;49.234;9.326;2023-03-03T02:37:45;99888.22;;;2.63;72.16
6216;BME280;3141;49.234;9.326;2023-03-03T02:38:39;99896.78;;;2.65;72.39
6216;BME280;3141;49.234;9.326;2023-03-03T02:39:25;99893.31;;;2.65;72.35
6216;BME280;3141;49.234;9.326;2023-03-03T02:40:08;99894.38;;;2.75;72.13
6216;BME280;3141;49.234;9.326;2023-03-03T02:41:10;99897.94;;;2.74;71.58
6216;BME280;3141;49.234;9.326;2023-03-03T02:42:20;99904.22;;;2.84;71.56
6216;BME280;3141;49.234;9.326;2023-03-03T02:43:05;99898.69;;;2.76;71.13
6216;BME280;3141;49.234;9.326;2023-03-03T02:44:42;99897.00;;;2.75;71.80
6216;BME280;3141;49.234;9.326;2023-03-03T02:45:25;99907.13;;;2.67;71.66
6216;BME280;3141;49.234;9.326;2023-03-03T02:46:07;99900.63;;;2.60;72.08
6216;BME280;3141;49.234;9.326;2023-03-03T02:46:51;99890.78;;;2.51;72.28
6216;BME280;3141;49.234;9.326;2023-03-03T02:47:34;99892.66;;;2.49;71.93
6216;BME280;3141;49.234;9.326;2023-03-03T02:48:16;99899.34;;;2.53;72.30
6216;BME280;3141;49.234;9.326;2023-03-03T02:48:58;99895.81;;;2.54;71.92
6216;BME280;3141;49.234;9.326;2023-03-03T02:49:41;99894.03;;;2.54;71.56
6216;BME280;3141;49.234;9.326;2023-03-03T02:50:24;99900.63;;;2.60;72.05
6216;BME280;3141;49.234;9.326;2023-03-03T02:51:06;99901.38;;;2.62;71.20
6216;BME280;3141;49.234;9.326;2023-03-03T02:51:49;99902.00;;;2.65;71.39
6216;BME280;3141;49.234;9.326;2023-03-03T02:52:31;99910.75;;;2.64;71.34
6216;BME280;3141;49.234;9.326;2023-03-03T02:53:14;99912.94;;;2.58;71.07
6216;BME280;3141;49.234;9.326;2023-03-03T02:53:56;99917.94;;;2.61;71.37
6216;BME280;3141;49.234;9.326;2023-03-03T02:54:39;99916.06;;;2.63;70.93
6216;BME280;3141;49.234;9.326;2023-03-03T02:55:21;99911.69;;;2.63;71.21
6216;BME280;3141;49.234;9.326;2023-03-03T02:56:04;99914.19;;;2.65;71.07
6216;BME280;3141;49.234;9.326;2023-03-03T02:56:46;99914.41;;;2.62;70.97
6216;BME280;3141;49.234;9.326;2023-03-03T02:57:29;99913.13;;;2.55;71.48
6216;BME280;3141;49.234;9.326;2023-03-03T02:58:11;99907.50;;;2.48;71.23
6216;BME280;3141;49.234;9.326;2023-03-03T02:58:54;99908.72;;;2.43;71.33
6216;BME280;3141;49.234;9.326;2023-03-03T02:59:36;99899.81;;;2.32;72.14
6216;BME280;3141;49.234;9.326;2023-03-03T03:00:19;99907.75;;;2.31;72.19
6216;BME280;3141;49.234;9.326;2023-03-03T03:01:03;99900.72;;;2.31;71.72
6216;BME280;3141;49.234;9.326;2023-03-03T03:01:46;99909.41;;;2.32;72.04
6216;BME280;3141;49.234;9.326;2023-03-03T03:02:28;99910.69;;;2.39;71.81
6216;BME280;3141;49.234;9.326;2023-03-03T03:03:11;99911.00;;;2.47;71.54
6216;BME280;3141;49.234;9.326;2023-03-03T03:03:53;99903.81;;;2.51;71.21
6216;BME280;3141;49.234;9.326;2023-03-03T03:04:35;99911.28;;;2.57;71.04
6216;BME280;3141;49.234;9.326;2023-03-03T03:05:18;99902.81;;;2.53;71.45
6216;BME280;3141;49.234;9.326;2023-03-03T03:06:00;99907.38;;;2.50;70.79
6216;BME280;3141;49.234;9.326;2023-03-03T03:06:44;99906.84;;;2.45;71.06
6216;BME280;3141;49.234;9.326;2023-03-03T03:07:26;99906.47;;;2.36;71.12
6216;BME280;3141;49.234;9.326;2023-03-03T03:08:08;99903.34;;;2.31;71.70
6216;BME280;3141;49.234;9.326;2023-03-03T03:08:51;99908.91;;;2.40;71.63
6216;BME280;3141;49.234;9.326;2023-03-03T03:09:33;99914.69;;;2.45;71.77
6216;BME280;3141;49.234;9.326;2023-03-03T03:10:15;99908.06;;;2.39;71.57
6216;BME280;3141;49.234;9.326;2023-03-03T03:10:58;99909.66;;;2.42;71.68
6216;BME280;3141;49.234;9.326;2023-03-03T03:11:41;99914.38;;;2.49;71.54
6216;BME280;3141;49.234;9.326;2023-03-03T03:12:23;99907.72;;;2.58;71.24
6216;BME280;3141;49.234;9.326;2023-03-03T03:13:06;99912.81;;;2.59;70.64
6216;BME280;3141;49.234;9.326;2023-03-03T03:13:48;99914.78;;;2.56;71.08
6216;BME280;3141;49.234;9.326;2023-03-03T03:14:30;99917.94;;;2.61;70.99
6216;BME280;3141;49.234;9.326;2023-03-03T03:15:13;99907.50;;;2.61;70.65
6216;BME280;3141;49.234;9.326;2023-03-03T03:15:57;99914.53;;;2.60;70.61
6216;BME280;3141;49.234;9.326;2023-03-03T03:16:40;99909.94;;;2.64;70.76
6216;BME280;3141;49.234;9.326;2023-03-03T03:17:23;99908.25;;;2.63;70.16
6216;BME280;3141;49.234;9.326;2023-03-03T03:18:05;99914.41;;;2.62;70.12
6216;BME280;3141;49.234;9.326;2023-03-03T03:18:48;99908.34;;;2.61;69.70
6216;BME280;3141;49.234;9.326;2023-03-03T03:19:33;99909.09;;;2.63;69.49
6216;BME280;3141;49.234;9.326;2023-03-03T03:20:16;99911.50;;;2.66;69.77
6216;BME280;3141;49.234;9.326;2023-03-03T03:21:08;99912.00;;;2.59;70.15
6216;BME280;3141;49.234;9.326;2023-03-03T03:21:50;99913.13;;;2.55;70.50
6216;BME280;3141;49.234;9.326;2023-03-03T03:22:33;99914.78;;;2.56;70.18
6216;BME280;3141;49.234;9.326;2023-03-03T03:23:15;99912.44;;;2.38;70.47
6216;BME280;3141;49.234;9.326;2023-03-03T03:23:58;99916.59;;;2.28;71.11
6216;BME280;3141;49.234;9.326;2023-03-03T03:24:40;99911.56;;;2.25;71.43
6216;BME280;3141;49.234;9.326;2023-03-03T03:25:23;99910.09;;;2.21;71.17
6216;BME280;3141;49.234;9.326;2023-03-03T03:26:05;99910.09;;;2.21;71.37
6216;BME280;3141;49.234;9.326;2023-03-03T03:26:47;99910.19;;;2.20;71.59
6216;BME280;3141;49.234;9.326;2023-03-03T03:27:30;99907.56;;;2.20;71.41
6216;BME280;3141;49.234;9.326;2023-03-03T03:28:14;99904.22;;;2.18;71.37
6216;BME280;3141;49.234;9.326;2023-03-03T03:28:56;99910.00;;;2.09;71.94
6216;BME280;3141;49.234;9.326;2023-03-03T03:29:39;99902.28;;;2.07;72.16
6216;BME280;3141;49.234;9.326;2023-03-03T03:30:21;99912.06;;;2.04;72.04
6216;BME280;3141;49.234;9.326;2023-03-03T03:31:05;99901.66;;;2.04;71.94
6216;BME280;3141;49.234;9.326;2023-03-03T03:31:48;99901.84;;;2.01;71.84
6216;BME280;3141;49.234;9.326;2023-03-03T03:32:30;99908.41;;;2.20;71.62
6216;BME280;3141;49.234;9.326;2023-03-03T03:33:12;99909.88;;;2.24;71.34
6216;BME280;3141;49.234;9.326;2023-03-03T03:33:55;99905.75;;;2.08;71.69
6216;BME280;3141;49.234;9.326;2023-03-03T03:34:37;99905.41;;;2.00;71.90
6216;BME280;3141;49.234;9.326;2023-03-03T03:35:19;99910.75;;;2.11;71.63
6216;BME280;3141;49.234;9.326;2023-03-03T03:36:02;99907.72;;;2.04;71.56
6216;BME280;3141;49.234;9.326;2023-03-03T03:36:45;99920.41;;;1.96;72.00
6216;BME280;3141;49.234;9.326;2023-03-03T03:37:28;99918.72;;;1.95;71.79
6216;BME280;3141;49.234;9.326;2023-03-03T03:38:10;99909.97;;;1.96;71.90
6216;BME280;3141;49.234;9.326;2023-03-03T03:38:53;99917.25;;;1.91;71.90
6216;BME280;3141;49.234;9.326;2023-03-03T03:39:35;99920.03;;;1.88;71.96
6216;BME280;3141;49.234;9.326;2023-03-03T03:40:18;99916.13;;;1.81;71.91
6216;BME280;3141;49.234;9.326;2023-03-03T03:41:00;99920.31;;;1.84;72.25
6216;BME280;3141;49.234;9.326;2023-03-03T03:41:42;99919.56;;;1.82;72.08
6216;BME280;3141;49.234;9.326;2023-03-03T03:42:25;99921.16;;;1.84;72.33
6216;BME280;3141;49.234;9.326;2023-03-03T03:43:07;99925.97;;;1.90;72.12
6216;BME280;3141;49.234;9.326;2023-03-03T03:43:50;99921.06;;;2.00;71.84
6216;BME280;3141;49.234;9.326;2023-03-03T03:44:32;99924.03;;;1.94;71.92
6216;BME280;3141;49.234;9.326;2023-03-03T03:45:14;99929.34;;;1.92;71.95
6216;BME280;3141;49.234;9.326;2023-03-03T03:45:57;99930.19;;;1.93;72.01
6216;BME280;3141;49.234;9.326;2023-03-03T03:46:39;99925.72;;;1.95;71.87
6216;BME280;3141;49.234;9.326;2023-03-03T03:47:21;99931.75;;;1.95;72.03
6216;BME280;3141;49.234;9.326;2023-03-03T03:48:04;99920.41;;;1.96;71.32
6216;BME280;3141;49.234;9.326;2023-03-03T03:48:46;99927.56;;;1.93;71.38
6216;BME280;3141;49.234;9.326;2023-03-03T03:49:28;99936.03;;;1.96;71.40
6216;BME280;3141;49.234;9.326;2023-03-03T03:50:12;99930.19;;;1.93;71.48
6216;BME280;3141;49.234;9.326;2023-03-03T03:50:54;99928.38;;;1.93;71.56
6216;BME280;3141;49.234;9.326;2023-03-03T03:51:36;99924.69;;;1.83;72.13
6216;BME280;3141;49.234;9.326;2023-03-03T03:52:22;99929.34;;;1.78;72.15
6216;BME280;3141;49.234;9.326;2023-03-03T03:53:05;99926.19;;;1.73;72.34
6216;BME280;3141;49.234;9.326;2023-03-03T03:53:48;99925.34;;;1.73;72.86
6216;BME280;3141;49.234;9.326;2023-03-03T03:54:30;99925.63;;;1.68;72.97
6216;BME280;3141;49.234;9.326;2023-03-03T03:55:12;99922.94;;;1.70;73.14
6216;BME280;3141;49.234;9.326;2023-03-03T03:55:56;99923.78;;;1.70;73.54
6216;BME280;3141;49.234;9.326;2023-03-03T03:56:38;99929.00;;;1.70;73.19
6216;BME280;3141;49.234;9.326;2023-03-03T03:57:20;99926.19;;;1.73;73.48
6216;BME280;3141;49.234;9.326;2023-03-03T03:58:03;99929.53;;;1.75;73.32
6216;BME280;3141;49.234;9.326;2023-03-03T03:58:45;99920.97;;;1.73;72.76
6216;BME280;3141;49.234;9.326;2023-03-03T03:59:27;99922.56;;;1.76;72.83
6216;BME280;3141;49.234;9.326;2023-03-03T04:00:10;99928.50;;;1.78;72.60
6216;BME280;3141;49.234;9.326;2023-03-03T04:00:53;99928.25;;;1.82;72.46
6216;BME280;3141;49.234;9.326;2023-03-03T04:01:35;99930.09;;;1.80;72.19
6216;BME280;3141;49.234;9.326;2023-03-03T04:02:18;99928.59;;;1.76;72.31
6216;BME280;3141;49.234;9.326;2023-03-03T04:03:00;99924.44;;;1.74;72.52
6216;BME280;3141;49.234;9.326;2023-03-03T04:03:42;99931.22;;;1.76;72.28
6216;BME280;3141;49.234;9.326;2023-03-03T04:04:24;99932.16;;;1.75;72.15
6216;BME280;3141;49.234;9.326;2023-03-03T04:05:07;99923.59;;;1.73;72.36
6216;BME280;3141;49.234;9.326;2023-03-03T04:05:51;99923.13;;;1.67;72.34
6216;BME280;3141;49.234;9.326;2023-03-03T04:06:34;99931.25;;;1.62;72.66
6216;BME280;3141;49.234;9.326;2023-03-03T04:07:16;99930.59;;;1.59;72.61
6216;BME280;3141;49.234;9.326;2023-03-03T04:07:58;99924.72;;;1.55;72.99
6216;BME280;3141;49.234;9.326;2023-03-03T04:08:40;99924.72;;;1.55;72.48
6216;BME280;3141;49.234;9.326;2023-03-03T04:09:23;99921.72;;;1.47;72.72
6216;BME280;3141;49.234;9.326;2023-03-03T04:10:05;99925.63;;;1.54;73.18
6216;BME280;3141;49.234;9.326;2023-03-03T04:10:48;99935.16;;;1.55;72.55
6216;BME280;3141;49.234;9.326;2023-03-03T04:11:30;99929.75;;;1.58;72.61
6216;BME280;3141;49.234;9.326;2023-03-03T04:12:12;99931.41;;;1.59;73.01
6216;BME280;3141;49.234;9.326;2023-03-03T04:12:55;99925.38;;;1.59;72.60
6216;BME280;3141;49.234;9.326;2023-03-03T04:13:37;99929.75;;;1.58;72.73
6216;BME280;3141;49.234;9.326;2023-03-03T04:14:19;99926.03;;;1.48;73.29
6216;BME280;3141;49.234;9.326;2023-03-03T04:15:02;99932.91;;;1.49;73.18
6216;BME280;3141;49.234;9.326;2023-03-03T04:15:44;99927.69;;;1.49;73.12
6216;BME280;3141;49.234;9.326;2023-03-03T04:16:29;99926.75;;;1.50;73.13
6216;BME280;3141;49.234;9.326;2023-03-03T04:17:20;99931.69;;;1.55;72.88
6216;BME280;3141;49.234;9.326;2023-03-03T04:18:03;99937.66;;;1.57;72.89
6216;BME280;3141;49.234;9.326;2023-03-03T04:18:45;99936.63;;;1.59;72.71
6216;BME280;3141;49.234;9.326;2023-03-03T04:19:27;99937.28;;;1.63;72.80